This is the latest recevied weather packets stored in our database for station/object K9VSK-9. If no packets are shown the sender has not sent any weather packets the latest 1 day(s).
| Time | Temp. | Humidity | Pressure | Rain* | Wind** | Luminosity | Snow |
|---|---|---|---|---|---|---|---|
| 1778004252 | 11.11° C | 61% | 1011.5 hPa | 0 mm | 1.79 m/s, 32° | - | - |
| 1778003952 | 11.11° C | 59% | 1011.6 hPa | 0 mm | 1.79 m/s, 34° | - | - |
| 1778003651 | 11.11° C | 59% | 1011.5 hPa | 0 mm | 1.79 m/s, 360° | - | - |
| 1778003351 | 11.11° C | 60% | 1011.5 hPa | 0 mm | 2.24 m/s, 10° | - | - |
| 1778003051 | 11.67° C | 61% | 1011.3 hPa | 0 mm | 1.79 m/s, 360° | - | - |
| 1778002751 | 11.67° C | 61% | 1011.3 hPa | 0 mm | 1.79 m/s, 360° | - | - |
| 1778002450 | 11.11° C | 61% | 1011.4 hPa | 0 mm | 1.34 m/s, 360° | - | - |
| 1778002150 | 11.67° C | 61% | 1011.3 hPa | 0 mm | 1.34 m/s, 360° | - | - |
| 1778001850 | 11.67° C | 61% | 1011.3 hPa | 0 mm | 0.89 m/s, 360° | - | - |
| 1778001550 | 12.22° C | 63% | 1011.2 hPa | 0 mm | 3.58 m/s, 360° | - | - |
| 1778001249 | 12.22° C | 62% | 1011.1 hPa | 0 mm | 0.45 m/s, 360° | - | - |
| 1778000949 | 12.22° C | 61% | 1011 hPa | 0 mm | 0.45 m/s, 360° | - | - |
| 1778000649 | 12.22° C | 62% | 1011 hPa | 0 mm | 0.89 m/s, 360° | - | - |
| 1778000348 | 12.22° C | 63% | 1010.9 hPa | 0 mm | 0.89 m/s, 360° | - | - |
| 1778000048 | 12.22° C | 64% | 1010.8 hPa | 0 mm | 0.89 m/s, 360° | - | - |
| 1777999749 | 12.22° C | 62% | 1010.9 hPa | 0 mm | 0.89 m/s, 360° | - | - |
| 1777999448 | 12.22° C | 61% | 1010.8 hPa | 0 mm | 0.89 m/s, 360° | - | - |
| 1777999147 | 12.22° C | 63% | 1010.8 hPa | 0 mm | 0.89 m/s, 360° | - | - |
| 1777998847 | 12.22° C | 63% | 1010.8 hPa | 0 mm | 0.89 m/s, 360° | - | - |
| 1777998547 | 12.22° C | 66% | 1010.8 hPa | 0 mm | 0.45 m/s, 360° | - | - |
| 1777998246 | 11.67° C | 71% | 1010.8 hPa | 0 mm | 0.89 m/s, 360° | - | - |
| 1777997946 | 12.22° C | 70% | 1010.8 hPa | 0 mm | 2.24 m/s, 360° | - | - |
| 1777997646 | 12.22° C | 69% | 1010.7 hPa | 0 mm | 0.45 m/s, 360° | - | - |
| 1777997345 | 12.22° C | 74% | 1010.4 hPa | 0 mm | 2.68 m/s, 360° | - | - |
| 1777997045 | 11.67° C | 71% | 1010.3 hPa | 0 mm | 0.45 m/s, 360° | - | - |
* Rain latest hour (hover to see other rain measurements)
** Current wind speed in m/s (hover to see current wind gust speed)